Latest Coastal Weather Observations for Yamba

IDN60701

Issued at 4:51 am EST Sunday 25 June 2017 (issued every 10 minutes, with the page automatically refreshed every 10 minutes)

About coastal observations | Map of coastal stations | Coastal observations for NSW | Marine services | Other Formats
Station Details ID: 058012 Name: YAMBA PILOT STATION Lat: -29.43 Lon: 153.36 Height: 27.4 m
Data from the previous 72 hours. | See also: Recent months at Yamba
Date/Time
EST
Temp
°C
Wind Pressure Rain since
9am
mm
Weather Cloud Vis
km
Sea
Height
m
Swell
Dir  Spd
kts
Gust
kts
hPa Trend Height
m
Period
s
Dir
25/04:30am 11.1 SW 5 7 1017.7 - 0.0 - - - - - - -
25/04:00am 11.3 SW 5 8 1018.0 - 0.0 - - - - - - -
25/03:30am 11.6 SW 5 7 1018.1 - 0.0 - - - - - - -
25/03:00am 11.6 SW 5 7 1018.3 - 0.0 - - - - - - -
25/02:30am 12.0 WSW 7 8 1018.3 - 0.0 - - - - - - -
25/02:00am 12.4 SW 4 6 1018.3 - 0.0 - - - - - - -
25/01:30am 12.5 SW 5 6 1018.4 - 0.0 - - - - - - -
25/01:00am 12.5 SW 5 7 1018.4 - 0.0 - - - - - - -
25/12:30am 13.1 WSW 5 8 1018.3 - 0.0 - - - - - - -
25/12:00am 13.0 SW 4 6 1018.4 - 0.0 - - - - - - -
 
Date/Time
EST
Temp
°C
Wind Pressure Rain since
9am
mm
Weather Cloud Vis
km
Sea
Height
m
Swell
Dir  Spd
kts
Gust
kts
hPa Trend Height
m
Period
s
Dir
24/11:30pm 13.3 SW 7 9 1018.6 - 0.0 - - - - - - -
24/11:00pm 13.4 SW 5 8 1018.9 - 0.0 - - - - - - -
24/10:30pm 14.3 W 6 7 1018.6 - 0.0 - - - - - - -
24/10:00pm 14.8 WSW 5 6 1018.5 - 0.0 - - - - - - -
24/09:30pm 15.3 W 4 5 1018.4 - 0.0 - - - - - - -
24/09:00pm 16.0 WSW 2 4 1018.4 - 0.0 - - - - - - -
24/08:30pm 16.5 WSW 3 5 1018.3 - 0.0 - - - - - - -
24/08:00pm 18.1 ESE 4 7 1018.1 - 0.0 - - - - - - -
24/07:30pm 17.8 ESE 5 8 1018.0 - 0.0 - - - - - - -
24/07:00pm 17.9 SE 7 10 1017.7 - 0.0 - - - - - - -
24/06:30pm 17.8 ESE 6 8 1017.3 - 0.0 - - - - - - -
24/06:00pm 17.7 SE 6 9 1017.2 - 0.0 - - - - - - -
24/05:30pm 17.9 ESE 6 9 1016.8 - 0.0 - - - - - - -
24/05:00pm 18.2 SE 9 13 1016.5 - 0.0 - - - - - - -
24/04:30pm 18.6 SE 9 11 1016.2 - 0.0 - - - - - - -
24/04:00pm 19.1 SE 9 12 1016.2 - 0.0 - - - - - - -
24/03:30pm 19.4 SE 11 14 1015.9 - 0.0 - - - - - - -
24/03:00pm 19.9 SE 12 15 1015.8 - 0.0 - - - - - - -
24/02:30pm 20.2 SE 11 14 1015.8 - 0.0 - - - - - - -
24/02:00pm 20.2 SE 10 12 1015.8 - 0.0 - - - - - - -
24/01:30pm 20.8 SE 8 10 1015.9 - 0.0 - - - - - - -
24/01:00pm 20.8 SSE 7 10 1016.1 - 0.0 - - - - - - -
24/12:30pm 21.0 SSW 5 9 1016.2 - 0.0 - - - - - - -
24/12:00pm 20.7 WNW 5 8 1016.5 - 0.0 - - - - - - -
24/11:30am 20.2 WSW 5 8 1017.1 - 0.0 - - - - - - -
24/11:00am 19.5 SW 5 8 1017.6 - 0.0 - - - - - - -
24/10:30am 18.9 WSW 5 8 1017.8 - 0.0 - - - - - - -
24/10:00am 17.3 WSW 6 10 1017.8 - 0.0 - - - - - - -
24/09:30am 16.4 WSW 7 10 1017.7 - 0.0 - - - - - - -
24/09:00am 15.5 SW 4 7 1017.6 - 0.0 - - - - - - -
24/08:30am 14.3 W 7 10 1017.2 - 0.0 - - - - - - -
24/08:00am 13.2 WSW 7 9 1017.1 - 0.0 - - - - - - -
24/07:30am 12.5 W 7 10 1016.6 - 0.0 - - - - - - -
24/07:00am 11.8 WSW 6 8 1016.2 - 0.0 - - - - - - -
24/06:30am 12.0 WSW 7 9 1015.8 - 0.0 - - - - - - -
24/06:00am 11.9 WSW 6 8 1015.7 - 0.0 - - - - - - -
24/05:30am 12.0 WSW 5 7 1015.3 - 0.0 - - - - - - -
24/05:00am 12.7 WSW 6 8 1015.1 - 0.0 - - - - - - -
24/04:30am 13.3 W 7 8 1015.1 - 0.0 - - - - - - -
24/04:00am 13.3 WSW 6 7 1015.2 - 0.0 - - - - - - -
24/03:30am 13.1 WNW 6 8 1015.1 - 0.0 - - - - - - -
24/03:00am 13.2 WNW 6 8 1015.1 - 0.0 - - - - - - -
24/02:30am 13.4 NW 6 9 1015.1 - 0.0 - - - - - - -
24/02:00am 13.3 WNW 7 9 1015.3 - 0.0 - - - - - - -
24/01:30am 13.6 NW 6 8 1015.4 - 0.0 - - - - - - -
24/01:00am 13.5 NW 7 9 1015.8 - 0.0 - - - - - - -
24/12:30am 13.3 NW 5 7 1016.2 - 0.0 - - - - - - -
24/12:00am 13.7 WNW 6 8 1016.7 - 0.0 - - - - - - -
 
Date/Time
EST
Temp
°C
Wind Pressure Rain since
9am
mm
Weather Cloud Vis
km
Sea
Height
m
Swell
Dir  Spd
kts
Gust
kts
hPa Trend Height
m
Period
s
Dir
23/11:30pm 14.1 WNW 5 7 1016.8 - 0.0 - - - - - - -
23/11:00pm 14.4 WNW 5 7 1017.2 - 0.0 - - - - - - -
23/10:30pm 14.7 WNW 5 6 1017.6 - 0.0 - - - - - - -
23/10:00pm 15.0 NW 5 6 1017.7 - 0.0 - - - - - - -
23/09:30pm 15.3 NW 6 8 1017.5 - 0.0 - - - - - - -
23/09:00pm 15.4 NW 5 7 1017.9 - 0.0 - - - - - - -
23/08:30pm 15.9 NNW 8 12 1017.9 - 0.0 - - - - - - -
23/08:00pm 16.0 NNW 6 8 1017.9 - 0.0 - - - - - - -
23/07:30pm 16.9 NNW 6 9 1017.7 - 0.0 - - - - - - -
23/07:00pm 17.1 NNW 6 10 1017.6 - 0.0 - - - - - - -
23/06:30pm 17.1 NNW 6 8 1017.7 - 0.0 - - - - - - -
23/06:00pm 17.0 N 5 8 1016.9 - 0.0 - - - - - - -
23/05:30pm 16.9 NNW 5 8 1017.1 - 0.0 - - - - - - -
23/05:00pm 17.1 NNW 4 6 1016.9 - 0.0 - - - - - - -
23/04:30pm 18.5 NNW 3 5 1017.3 - 0.0 - - - - - - -
23/04:00pm 19.9 NNW 4 5 1017.6 - 0.0 - - - - - - -
23/03:30pm 21.5 NNW 5 7 1017.5 - 0.0 - - - - - - -
23/03:00pm 22.0 NNW 5 7 1017.6 - 0.0 - - - - - - -
23/02:30pm 22.0 NNW 5 7 1017.7 - 0.0 - - - - - - -
23/02:00pm 21.8 N 4 7 1018.1 - 0.0 - - - - - - -
23/01:30pm 21.8 N 4 6 1018.5 - 0.0 - - - - - - -
23/01:00pm 19.5 NE 5 7 1018.9 - 0.0 - - - - - - -
23/12:30pm 21.0 NW 4 5 1019.6 - 0.0 - - - - - - -
23/12:00pm 20.4 NW 5 7 1020.2 - 0.0 - - - - - - -
23/11:30am 20.0 NW 5 7 1020.8 - 0.0 - - - - - - -
23/11:00am 18.6 W 5 8 1021.9 - 0.0 - - - - - - -
23/10:30am 17.6 W 5 8 1022.4 - 0.0 - - - - - - -
23/10:00am 16.2 W 6 8 1022.7 - 0.0 - - - - - - -
23/09:30am 15.4 W 5 8 1022.9 - 0.0 - - - - - - -
23/09:00am 14.1 WSW 6 8 1022.9 - 0.0 - - - - - - -
23/08:30am 12.9 WSW 6 8 1022.8 - 0.0 - - - - - - -
23/08:00am 12.1 WSW 6 9 1022.6 - 0.0 - - - - - - -
23/07:30am 11.7 WSW 6 9 1022.5 - 0.0 - - - - - - -
23/07:00am 11.2 SW 5 8 1022.3 - 0.0 - - - - - - -
23/06:30am 11.2 WSW 5 8 1022.1 - 0.0 - - - - - - -
23/06:00am 11.4 SW 5 9 1022.1 - 0.0 - - - - - - -
23/05:30am 11.3 WSW 6 10 1021.9 - 0.0 - - - - - - -
23/05:00am 11.5 WSW 6 7 1021.4 - 0.0 - - - - - - -
23/04:30am 11.7 WSW 5 8 1021.6 - 0.0 - - - - - - -
23/04:00am 11.9 SW 5 8 1021.7 - 0.0 - - - - - - -
23/03:30am 11.9 SW 7 11 1021.9 - 0.0 - - - - - - -
23/03:00am 12.1 SW 5 8 1022.0 - 0.0 - - - - - - -
23/02:30am 12.3 WSW 6 9 1022.2 - 0.0 - - - - - - -
23/02:00am 12.5 WSW 5 8 1022.4 - 0.0 - - - - - - -
23/01:30am 12.7 WSW 5 8 1022.5 - 0.0 - - - - - - -
23/01:00am 13.1 WSW 5 8 1022.8 - 0.0 - - - - - - -
23/12:30am 13.3 WSW 5 9 1023.0 - 0.0 - - - - - - -
23/12:00am 13.6 WSW 5 7 1023.2 - 0.0 - - - - - - -
 
Date/Time
EST
Temp
°C
Wind Pressure Rain since
9am
mm
Weather Cloud Vis
km
Sea
Height
m
Swell
Dir  Spd
kts
Gust
kts
hPa Trend Height
m
Period
s
Dir
22/11:30pm 14.1 WSW 6 7 1023.5 - 0.0 - - - - - - -
22/11:00pm 14.6 SW 4 7 1023.6 - 0.0 - - - - - - -
22/10:30pm 15.0 W 5 6 1023.8 - 0.0 - - - - - - -
22/10:00pm 16.6 S 6 8 1023.9 - 0.0 - - - - - - -
22/09:30pm 16.4 S 6 7 1024.1 - 0.0 - - - - - - -
22/09:00pm 16.8 S 6 8 1024.3 - 0.0 - - - - - - -
22/08:30pm 18.1 SSE 8 13 1024.4 - 0.0 - - - - - - -
22/08:00pm 18.2 SSE 8 13 1024.4 - 0.0 - - - - - - -
22/07:30pm 17.8 SSE 8 11 1024.2 - 0.0 - - - - - - -
22/07:00pm 16.8 S 7 8 1024.1 - 0.0 - - - - - - -
22/06:30pm 16.8 S 6 9 1024.0 - 0.0 - - - - - - -
22/06:00pm 17.5 S 6 9 1024.0 - 0.0 - - - - - - -
22/05:30pm 18.6 SSE 9 12 1023.7 - 0.0 - - - - - - -
22/05:00pm 18.6 SSE 9 14 1023.4 - 0.0 - - - - - - -
22/04:30pm 18.7 SSE 9 13 1023.2 - 0.0 - - - - - - -
22/04:00pm 19.0 SSE 9 13 1023.3 - 0.0 - - - - - - -
22/03:30pm 19.5 SSE 8 12 1023.1 - 0.0 - - - - - - -
22/03:00pm 19.9 SSE 8 13 1023.0 - 0.0 - - - - - - -
22/02:30pm 19.8 SSE 8 11 1023.0 - 0.0 - - - - - - -
22/02:00pm 20.0 SSE 8 13 1023.3 - 0.0 - - - - - - -
22/01:30pm 20.4 SE 9 11 1023.3 - 0.0 - - - - - - -
22/01:00pm 20.8 SW 5 8 1023.7 - 0.0 - - - - - - -
22/12:30pm 20.2 SSW 6 11 1024.2 - 0.0 - - - - - - -
22/12:00pm 19.9 SW 6 9 1024.6 - 0.0 - - - - - - -
22/11:30am 19.9 SW 4 7 1025.1 - 0.0 - - - - - - -
22/11:00am 18.9 SW 5 9 1025.5 - 0.0 - - - - - - -
22/10:30am 18.4 SW 5 9 1025.8 - 0.0 - - - - - - -
22/10:00am 17.4 SW 5 9 1026.0 - 0.0 - - - - - - -
22/09:30am 16.4 SW 5 8 1026.1 - 0.0 - - - - - - -
22/09:00am 14.9 SW 5 11 1026.2 - 0.2 - - - - - - -
22/08:30am 14.1 WSW 5 8 1026.0 - 0.2 - - - - - - -
22/08:00am 13.4 WSW 5 9 1025.7 - 0.2 - - - - - - -
22/07:30am 12.6 WSW 5 7 1025.2 - 0.2 - - - - - - -
22/07:00am 12.2 SW 5 7 1025.1 - 0.2 - - - - - - -
22/06:30am 12.3 WSW 5 7 1025.0 - 0.2 - - - - - - -
22/06:00am 12.6 WSW 5 7 1024.5 - 0.2 - - - - - - -
22/05:30am 12.6 SW 4 7 1024.4 - 0.2 - - - - - - -
22/05:00am 13.1 WSW 5 8 1024.1 - 0.2 - - - - - - -

Other Formats:

Comma delimited format used in spreadsheet applications
http://www.bom.gov.au/fwo/IDN60701/IDN60701.94589.axf

JavaScript Object Notation format (JSON) in row-major order
http://www.bom.gov.au/fwo/IDN60701/IDN60701.94589.json